sensor_id;sensor_type;location;lat;lon;timestamp;P1;durP1;ratioP1;P2;durP2;ratioP2
32319;SDS011;19080;51.750;5.888;2023-02-17T00:03:54;26.00;;;21.60;;
32319;SDS011;19080;51.750;5.888;2023-02-17T00:06:22;22.83;;;20.45;;
32319;SDS011;19080;51.750;5.888;2023-02-17T00:08:50;23.88;;;21.35;;
32319;SDS011;19080;51.750;5.888;2023-02-17T00:11:17;24.00;;;21.00;;
32319;SDS011;19080;51.750;5.888;2023-02-17T00:13:44;22.98;;;20.65;;
32319;SDS011;19080;51.750;5.888;2023-02-17T00:16:12;22.30;;;19.05;;
32319;SDS011;19080;51.750;5.888;2023-02-17T00:18:43;23.33;;;20.63;;
32319;SDS011;19080;51.750;5.888;2023-02-17T00:21:16;21.80;;;19.27;;
32319;SDS011;19080;51.750;5.888;2023-02-17T00:23:45;20.73;;;18.52;;
32319;SDS011;19080;51.750;5.888;2023-02-17T00:26:13;20.50;;;18.35;;
32319;SDS011;19080;51.750;5.888;2023-02-17T00:28:41;23.60;;;19.30;;
32319;SDS011;19080;51.750;5.888;2023-02-17T00:31:11;21.42;;;19.23;;
32319;SDS011;19080;51.750;5.888;2023-02-17T00:33:40;19.35;;;17.25;;
32319;SDS011;19080;51.750;5.888;2023-02-17T00:36:10;20.02;;;17.92;;
32319;SDS011;19080;51.750;5.888;2023-02-17T00:38:38;18.00;;;16.20;;
32319;SDS011;19080;51.750;5.888;2023-02-17T00:41:05;17.52;;;15.63;;
32319;SDS011;19080;51.750;5.888;2023-02-17T00:43:32;17.15;;;15.45;;
32319;SDS011;19080;51.750;5.888;2023-02-17T00:45:59;17.20;;;15.48;;
32319;SDS011;19080;51.750;5.888;2023-02-17T00:48:25;16.08;;;14.00;;
32319;SDS011;19080;51.750;5.888;2023-02-17T00:50:52;18.00;;;14.05;;
32319;SDS011;19080;51.750;5.888;2023-02-17T00:53:18;14.63;;;12.75;;
32319;SDS011;19080;51.750;5.888;2023-02-17T00:55:45;14.20;;;12.70;;
32319;SDS011;19080;51.750;5.888;2023-02-17T00:58:12;14.20;;;12.80;;
32319;SDS011;19080;51.750;5.888;2023-02-17T01:00:39;14.63;;;13.13;;
32319;SDS011;19080;51.750;5.888;2023-02-17T01:03:05;13.82;;;12.45;;
32319;SDS011;19080;51.750;5.888;2023-02-17T01:05:32;11.90;;;10.45;;
32319;SDS011;19080;51.750;5.888;2023-02-17T01:07:59;11.65;;;10.13;;
32319;SDS011;19080;51.750;5.888;2023-02-17T01:10:25;11.63;;;10.52;;
32319;SDS011;19080;51.750;5.888;2023-02-17T01:12:52;12.05;;;10.80;;
32319;SDS011;19080;51.750;5.888;2023-02-17T01:15:20;13.38;;;11.90;;
32319;SDS011;19080;51.750;5.888;2023-02-17T01:17:48;11.90;;;10.80;;
32319;SDS011;19080;51.750;5.888;2023-02-17T01:20:14;11.63;;;10.52;;
32319;SDS011;19080;51.750;5.888;2023-02-17T01:22:41;11.68;;;10.55;;
32319;SDS011;19080;51.750;5.888;2023-02-17T01:25:07;11.75;;;10.55;;
32319;SDS011;19080;51.750;5.888;2023-02-17T01:27:34;12.02;;;10.90;;
32319;SDS011;19080;51.750;5.888;2023-02-17T01:30:01;14.02;;;12.55;;
32319;SDS011;19080;51.750;5.888;2023-02-17T01:32:29;14.52;;;12.93;;
32319;SDS011;19080;51.750;5.888;2023-02-17T01:34:55;14.90;;;13.30;;
32319;SDS011;19080;51.750;5.888;2023-02-17T01:37:22;17.70;;;15.38;;
32319;SDS011;19080;51.750;5.888;2023-02-17T01:39:48;15.13;;;13.50;;
32319;SDS011;19080;51.750;5.888;2023-02-17T01:42:15;17.77;;;15.98;;
32319;SDS011;19080;51.750;5.888;2023-02-17T01:50:22;23.13;;;20.63;;
32319;SDS011;19080;51.750;5.888;2023-02-17T01:52:54;24.77;;;21.23;;
32319;SDS011;19080;51.750;5.888;2023-02-17T01:55:23;24.02;;;20.52;;
32319;SDS011;19080;51.750;5.888;2023-02-17T01:57:52;23.77;;;21.02;;
32319;SDS011;19080;51.750;5.888;2023-02-17T02:00:21;23.35;;;20.90;;
32319;SDS011;19080;51.750;5.888;2023-02-17T02:02:52;23.30;;;20.70;;
32319;SDS011;19080;51.750;5.888;2023-02-17T02:05:19;24.67;;;21.40;;
32319;SDS011;19080;51.750;5.888;2023-02-17T02:07:47;22.58;;;20.23;;
32319;SDS011;19080;51.750;5.888;2023-02-17T02:10:16;22.08;;;19.67;;
32319;SDS011;19080;51.750;5.888;2023-02-17T02:12:43;20.92;;;18.73;;
32319;SDS011;19080;51.750;5.888;2023-02-17T02:15:11;21.33;;;19.02;;
32319;SDS011;19080;51.750;5.888;2023-02-17T02:20:52;21.10;;;17.98;;
32319;SDS011;19080;51.750;5.888;2023-02-17T02:30:17;18.42;;;16.48;;
32319;SDS011;19080;51.750;5.888;2023-02-17T02:37:52;17.67;;;15.82;;
32319;SDS011;19080;51.750;5.888;2023-02-17T02:40:26;17.20;;;15.40;;
32319;SDS011;19080;51.750;5.888;2023-02-17T02:42:58;17.48;;;15.68;;
32319;SDS011;19080;51.750;5.888;2023-02-17T02:45:30;18.27;;;16.27;;
32319;SDS011;19080;51.750;5.888;2023-02-17T02:47:57;20.60;;;16.17;;
32319;SDS011;19080;51.750;5.888;2023-02-17T02:55:47;18.50;;;15.40;;
32319;SDS011;19080;51.750;5.888;2023-02-17T02:58:27;16.85;;;15.18;;
32319;SDS011;19080;51.750;5.888;2023-02-17T03:03:46;17.75;;;15.85;;
32319;SDS011;19080;51.750;5.888;2023-02-17T03:09:11;18.63;;;16.48;;
32319;SDS011;19080;51.750;5.888;2023-02-17T03:11:44;17.67;;;15.88;;
32319;SDS011;19080;51.750;5.888;2023-02-17T03:14:13;19.42;;;16.65;;
32319;SDS011;19080;51.750;5.888;2023-02-17T03:16:42;19.05;;;17.05;;
32319;SDS011;19080;51.750;5.888;2023-02-17T03:19:10;21.67;;;17.98;;
32319;SDS011;19080;51.750;5.888;2023-02-17T03:21:38;18.45;;;16.40;;
32319;SDS011;19080;51.750;5.888;2023-02-17T03:24:09;19.13;;;15.95;;
32319;SDS011;19080;51.750;5.888;2023-02-17T03:26:35;19.67;;;17.63;;
32319;SDS011;19080;51.750;5.888;2023-02-17T03:29:02;19.17;;;16.70;;
32319;SDS011;19080;51.750;5.888;2023-02-17T03:31:29;20.45;;;17.65;;
32319;SDS011;19080;51.750;5.888;2023-02-17T03:33:56;18.85;;;16.85;;
32319;SDS011;19080;51.750;5.888;2023-02-17T03:36:23;19.75;;;17.45;;
32319;SDS011;19080;51.750;5.888;2023-02-17T03:38:50;19.75;;;17.65;;
32319;SDS011;19080;51.750;5.888;2023-02-17T03:41:17;19.98;;;17.88;;
32319;SDS011;19080;51.750;5.888;2023-02-17T03:43:43;21.23;;;17.15;;
32319;SDS011;19080;51.750;5.888;2023-02-17T03:46:10;19.67;;;17.55;;
32319;SDS011;19080;51.750;5.888;2023-02-17T03:48:37;20.67;;;18.48;;
32319;SDS011;19080;51.750;5.888;2023-02-17T03:51:17;21.83;;;18.70;;
32319;SDS011;19080;51.750;5.888;2023-02-17T03:53:45;20.20;;;17.80;;
32319;SDS011;19080;51.750;5.888;2023-02-17T03:56:13;21.48;;;18.33;;
32319;SDS011;19080;51.750;5.888;2023-02-17T03:58:40;22.40;;;18.52;;
32319;SDS011;19080;51.750;5.888;2023-02-17T04:01:08;20.13;;;17.90;;
32319;SDS011;19080;51.750;5.888;2023-02-17T04:03:36;20.67;;;18.17;;
32319;SDS011;19080;51.750;5.888;2023-02-17T04:06:03;22.80;;;19.63;;
32319;SDS011;19080;51.750;5.888;2023-02-17T04:08:31;21.63;;;19.13;;
32319;SDS011;19080;51.750;5.888;2023-02-17T04:10:59;23.42;;;19.70;;
32319;SDS011;19080;51.750;5.888;2023-02-17T04:13:26;22.60;;;20.20;;
32319;SDS011;19080;51.750;5.888;2023-02-17T04:15:53;21.95;;;18.92;;
32319;SDS011;19080;51.750;5.888;2023-02-17T04:18:20;21.90;;;17.73;;
32319;SDS011;19080;51.750;5.888;2023-02-17T04:20:48;21.98;;;19.17;;
32319;SDS011;19080;51.750;5.888;2023-02-17T04:23:16;21.33;;;17.50;;
32319;SDS011;19080;51.750;5.888;2023-02-17T04:25:43;23.25;;;17.58;;
32319;SDS011;19080;51.750;5.888;2023-02-17T04:28:10;22.38;;;18.63;;
32319;SDS011;19080;51.750;5.888;2023-02-17T04:30:37;21.23;;;17.88;;
32319;SDS011;19080;51.750;5.888;2023-02-17T04:33:04;20.05;;;17.08;;
32319;SDS011;19080;51.750;5.888;2023-02-17T04:35:31;21.20;;;17.67;;
32319;SDS011;19080;51.750;5.888;2023-02-17T04:37:57;17.27;;;15.48;;
32319;SDS011;19080;51.750;5.888;2023-02-17T04:40:24;16.77;;;14.82;;
32319;SDS011;19080;51.750;5.888;2023-02-17T04:42:50;17.77;;;14.43;;
32319;SDS011;19080;51.750;5.888;2023-02-17T04:45:17;16.65;;;14.85;;
32319;SDS011;19080;51.750;5.888;2023-02-17T04:47:44;17.55;;;14.40;;
32319;SDS011;19080;51.750;5.888;2023-02-17T04:50:10;17.15;;;13.38;;
32319;SDS011;19080;51.750;5.888;2023-02-17T04:52:37;17.65;;;14.32;;
32319;SDS011;19080;51.750;5.888;2023-02-17T04:55:04;15.02;;;12.90;;
32319;SDS011;19080;51.750;5.888;2023-02-17T04:57:31;16.38;;;12.27;;
32319;SDS011;19080;51.750;5.888;2023-02-17T04:59:58;14.15;;;12.63;;
32319;SDS011;19080;51.750;5.888;2023-02-17T05:02:24;15.15;;;12.95;;
32319;SDS011;19080;51.750;5.888;2023-02-17T05:04:55;15.27;;;12.90;;
32319;SDS011;19080;51.750;5.888;2023-02-17T05:07:22;13.90;;;12.40;;
32319;SDS011;19080;51.750;5.888;2023-02-17T05:09:49;16.27;;;13.07;;
32319;SDS011;19080;51.750;5.888;2023-02-17T05:12:15;18.73;;;14.15;;
32319;SDS011;19080;51.750;5.888;2023-02-17T05:14:42;17.35;;;13.70;;
32319;SDS011;19080;51.750;5.888;2023-02-17T05:17:08;16.80;;;13.13;;
32319;SDS011;19080;51.750;5.888;2023-02-17T05:19:35;14.80;;;11.88;;
32319;SDS011;19080;51.750;5.888;2023-02-17T05:22:02;16.48;;;13.05;;
32319;SDS011;19080;51.750;5.888;2023-02-17T05:24:28;15.35;;;11.98;;
32319;SDS011;19080;51.750;5.888;2023-02-17T05:26:55;15.00;;;12.57;;
32319;SDS011;19080;51.750;5.888;2023-02-17T05:29:21;16.08;;;12.63;;
32319;SDS011;19080;51.750;5.888;2023-02-17T05:31:49;16.70;;;12.65;;
32319;SDS011;19080;51.750;5.888;2023-02-17T05:34:16;14.40;;;12.52;;
32319;SDS011;19080;51.750;5.888;2023-02-17T05:36:42;16.10;;;11.85;;
32319;SDS011;19080;51.750;5.888;2023-02-17T05:39:09;16.25;;;12.82;;
32319;SDS011;19080;51.750;5.888;2023-02-17T05:41:35;14.52;;;11.93;;
32319;SDS011;19080;51.750;5.888;2023-02-17T05:44:02;13.60;;;11.77;;
32319;SDS011;19080;51.750;5.888;2023-02-17T05:46:28;14.45;;;10.82;;
32319;SDS011;19080;51.750;5.888;2023-02-17T05:48:55;15.95;;;11.48;;
32319;SDS011;19080;51.750;5.888;2023-02-17T05:51:21;14.68;;;11.55;;
32319;SDS011;19080;51.750;5.888;2023-02-17T05:53:48;17.98;;;12.30;;
32319;SDS011;19080;51.750;5.888;2023-02-17T05:56:15;21.73;;;12.38;;
32319;SDS011;19080;51.750;5.888;2023-02-17T05:58:41;13.50;;;10.90;;
32319;SDS011;19080;51.750;5.888;2023-02-17T06:01:08;16.67;;;11.85;;
32319;SDS011;19080;51.750;5.888;2023-02-17T06:03:35;12.15;;;10.35;;
32319;SDS011;19080;51.750;5.888;2023-02-17T06:06:03;12.52;;;11.07;;
32319;SDS011;19080;51.750;5.888;2023-02-17T06:08:31;13.57;;;11.25;;
32319;SDS011;19080;51.750;5.888;2023-02-17T06:10:58;15.63;;;11.65;;
32319;SDS011;19080;51.750;5.888;2023-02-17T06:13:24;13.45;;;11.30;;
32319;SDS011;19080;51.750;5.888;2023-02-17T06:15:51;14.70;;;12.20;;
32319;SDS011;19080;51.750;5.888;2023-02-17T06:18:18;14.18;;;11.65;;
32319;SDS011;19080;51.750;5.888;2023-02-17T06:20:45;16.25;;;11.52;;
32319;SDS011;19080;51.750;5.888;2023-02-17T06:23:11;15.23;;;11.88;;
32319;SDS011;19080;51.750;5.888;2023-02-17T06:25:38;18.00;;;11.98;;
32319;SDS011;19080;51.750;5.888;2023-02-17T06:28:04;15.82;;;12.15;;
32319;SDS011;19080;51.750;5.888;2023-02-17T06:30:31;16.02;;;12.90;;
32319;SDS011;19080;51.750;5.888;2023-02-17T06:32:58;15.45;;;12.82;;
32319;SDS011;19080;51.750;5.888;2023-02-17T06:35:25;16.60;;;13.25;;
32319;SDS011;19080;51.750;5.888;2023-02-17T06:37:51;18.20;;;14.18;;
32319;SDS011;19080;51.750;5.888;2023-02-17T06:40:18;18.95;;;15.10;;
32319;SDS011;19080;51.750;5.888;2023-02-17T06:42:45;16.48;;;12.95;;
32319;SDS011;19080;51.750;5.888;2023-02-17T06:45:11;21.23;;;14.65;;
32319;SDS011;19080;51.750;5.888;2023-02-17T06:47:38;18.35;;;14.52;;
32319;SDS011;19080;51.750;5.888;2023-02-17T06:50:05;18.55;;;14.00;;
32319;SDS011;19080;51.750;5.888;2023-02-17T06:52:32;21.67;;;14.50;;
32319;SDS011;19080;51.750;5.888;2023-02-17T06:54:59;18.90;;;14.25;;
32319;SDS011;19080;51.750;5.888;2023-02-17T06:57:26;18.55;;;14.50;;
32319;SDS011;19080;51.750;5.888;2023-02-17T06:59:53;21.05;;;14.98;;
32319;SDS011;19080;51.750;5.888;2023-02-17T07:02:19;17.55;;;13.98;;
32319;SDS011;19080;51.750;5.888;2023-02-17T07:04:46;17.45;;;13.77;;
32319;SDS011;19080;51.750;5.888;2023-02-17T07:07:13;18.60;;;15.60;;
32319;SDS011;19080;51.750;5.888;2023-02-17T07:09:40;19.80;;;14.90;;
32319;SDS011;19080;51.750;5.888;2023-02-17T07:12:06;23.65;;;15.30;;
32319;SDS011;19080;51.750;5.888;2023-02-17T07:14:33;19.38;;;14.38;;
32319;SDS011;19080;51.750;5.888;2023-02-17T07:17:00;21.45;;;15.50;;
32319;SDS011;19080;51.750;5.888;2023-02-17T07:19:27;21.00;;;14.98;;
32319;SDS011;19080;51.750;5.888;2023-02-17T07:21:57;22.98;;;15.68;;
32319;SDS011;19080;51.750;5.888;2023-02-17T07:24:30;21.92;;;15.27;;
32319;SDS011;19080;51.750;5.888;2023-02-17T07:27:05;21.35;;;14.27;;
32319;SDS011;19080;51.750;5.888;2023-02-17T07:29:33;19.02;;;14.05;;
32319;SDS011;19080;51.750;5.888;2023-02-17T07:32:00;19.77;;;15.00;;
32319;SDS011;19080;51.750;5.888;2023-02-17T07:34:27;20.42;;;15.07;;
32319;SDS011;19080;51.750;5.888;2023-02-17T07:36:53;18.52;;;14.02;;
32319;SDS011;19080;51.750;5.888;2023-02-17T07:39:20;20.20;;;14.82;;
32319;SDS011;19080;51.750;5.888;2023-02-17T07:41:46;17.17;;;13.13;;
32319;SDS011;19080;51.750;5.888;2023-02-17T07:44:16;19.80;;;13.48;;
32319;SDS011;19080;51.750;5.888;2023-02-17T07:46:43;16.33;;;12.57;;
32319;SDS011;19080;51.750;5.888;2023-02-17T07:49:09;16.70;;;13.10;;
32319;SDS011;19080;51.750;5.888;2023-02-17T07:51:36;16.95;;;13.07;;
32319;SDS011;19080;51.750;5.888;2023-02-17T07:54:03;18.23;;;12.98;;
32319;SDS011;19080;51.750;5.888;2023-02-17T07:56:29;15.70;;;12.13;;
32319;SDS011;19080;51.750;5.888;2023-02-17T07:58:56;19.73;;;12.57;;
32319;SDS011;19080;51.750;5.888;2023-02-17T08:01:23;19.08;;;12.43;;
32319;SDS011;19080;51.750;5.888;2023-02-17T08:03:51;15.10;;;12.05;;
32319;SDS011;19080;51.750;5.888;2023-02-17T08:06:20;16.63;;;11.93;;
32319;SDS011;19080;51.750;5.888;2023-02-17T08:08:48;18.23;;;12.00;;
32319;SDS011;19080;51.750;5.888;2023-02-17T08:11:35;14.45;;;12.50;;
32319;SDS011;19080;51.750;5.888;2023-02-17T08:14:21;16.15;;;12.20;;
32319;SDS011;19080;51.750;5.888;2023-02-17T08:16:49;18.02;;;13.35;;
32319;SDS011;19080;51.750;5.888;2023-02-17T08:19:16;16.92;;;12.82;;
32319;SDS011;19080;51.750;5.888;2023-02-17T08:21:42;15.40;;;12.18;;
32319;SDS011;19080;51.750;5.888;2023-02-17T08:24:09;15.05;;;11.95;;
32319;SDS011;19080;51.750;5.888;2023-02-17T08:26:36;17.90;;;13.15;;
32319;SDS011;19080;51.750;5.888;2023-02-17T08:29:03;15.27;;;12.60;;
32319;SDS011;19080;51.750;5.888;2023-02-17T08:31:31;20.38;;;14.35;;
32319;SDS011;19080;51.750;5.888;2023-02-17T08:34:00;16.80;;;13.43;;
32319;SDS011;19080;51.750;5.888;2023-02-17T08:36:28;16.85;;;13.13;;
32319;SDS011;19080;51.750;5.888;2023-02-17T08:38:56;14.88;;;12.65;;
32319;SDS011;19080;51.750;5.888;2023-02-17T08:41:25;13.38;;;11.20;;
32319;SDS011;19080;51.750;5.888;2023-02-17T08:43:56;15.95;;;12.27;;
32319;SDS011;19080;51.750;5.888;2023-02-17T08:46:24;15.27;;;12.98;;
32319;SDS011;19080;51.750;5.888;2023-02-17T08:48:51;18.90;;;12.82;;
32319;SDS011;19080;51.750;5.888;2023-02-17T08:51:19;18.98;;;14.23;;
32319;SDS011;19080;51.750;5.888;2023-02-17T08:53:52;15.85;;;13.35;;
32319;SDS011;19080;51.750;5.888;2023-02-17T08:56:20;15.77;;;13.68;;
32319;SDS011;19080;51.750;5.888;2023-02-17T08:58:48;15.95;;;13.93;;
32319;SDS011;19080;51.750;5.888;2023-02-17T09:01:15;17.85;;;14.05;;
32319;SDS011;19080;51.750;5.888;2023-02-17T09:03:44;16.25;;;13.70;;
32319;SDS011;19080;51.750;5.888;2023-02-17T09:06:11;17.25;;;14.77;;
32319;SDS011;19080;51.750;5.888;2023-02-17T09:08:38;16.30;;;14.43;;
32319;SDS011;19080;51.750;5.888;2023-02-17T09:11:06;16.00;;;13.82;;
32319;SDS011;19080;51.750;5.888;2023-02-17T09:13:35;16.80;;;15.00;;
32319;SDS011;19080;51.750;5.888;2023-02-17T09:16:02;17.98;;;14.63;;
32319;SDS011;19080;51.750;5.888;2023-02-17T09:18:29;17.10;;;15.20;;
32319;SDS011;19080;51.750;5.888;2023-02-17T09:20:55;16.50;;;14.85;;
32319;SDS011;19080;51.750;5.888;2023-02-17T09:23:23;14.77;;;13.15;;
32319;SDS011;19080;51.750;5.888;2023-02-17T09:25:59;19.73;;;16.67;;
32319;SDS011;19080;51.750;5.888;2023-02-17T09:28:26;14.77;;;13.27;;
32319;SDS011;19080;51.750;5.888;2023-02-17T09:30:53;14.40;;;12.88;;
32319;SDS011;19080;51.750;5.888;2023-02-17T09:33:19;14.20;;;12.70;;
32319;SDS011;19080;51.750;5.888;2023-02-17T09:35:46;13.70;;;12.18;;
32319;SDS011;19080;51.750;5.888;2023-02-17T09:38:14;15.57;;;13.80;;
32319;SDS011;19080;51.750;5.888;2023-02-17T09:40:42;13.55;;;12.15;;
32319;SDS011;19080;51.750;5.888;2023-02-17T09:43:15;14.23;;;12.73;;
32319;SDS011;19080;51.750;5.888;2023-02-17T09:45:46;13.63;;;12.20;;
32319;SDS011;19080;51.750;5.888;2023-02-17T09:48:18;14.55;;;11.65;;
32319;SDS011;19080;51.750;5.888;2023-02-17T09:53:30;14.32;;;12.93;;
32319;SDS011;19080;51.750;5.888;2023-02-17T09:56:03;13.45;;;12.10;;
32319;SDS011;19080;51.750;5.888;2023-02-17T09:58:40;13.15;;;11.85;;
32319;SDS011;19080;51.750;5.888;2023-02-17T10:01:17;12.90;;;11.70;;
32319;SDS011;19080;51.750;5.888;2023-02-17T10:03:48;13.88;;;12.45;;
32319;SDS011;19080;51.750;5.888;2023-02-17T10:08:55;11.77;;;10.65;;
32319;SDS011;19080;51.750;5.888;2023-02-17T10:14:21;10.93;;;9.30;;
32319;SDS011;19080;51.750;5.888;2023-02-17T10:16:58;14.98;;;10.15;;
32319;SDS011;19080;51.750;5.888;2023-02-17T10:22:39;10.15;;;9.15;;
32319;SDS011;19080;51.750;5.888;2023-02-17T10:25:15;11.55;;;9.93;;
32319;SDS011;19080;51.750;5.888;2023-02-17T10:27:54;8.95;;;7.95;;
32319;SDS011;19080;51.750;5.888;2023-02-17T10:35:54;10.05;;;9.10;;
32319;SDS011;19080;51.750;5.888;2023-02-17T10:41:02;8.63;;;6.95;;
32319;SDS011;19080;51.750;5.888;2023-02-17T10:43:31;7.88;;;7.18;;
32319;SDS011;19080;51.750;5.888;2023-02-17T10:45:59;8.77;;;7.88;;
32319;SDS011;19080;51.750;5.888;2023-02-17T10:51:03;8.52;;;7.72;;
32319;SDS011;19080;51.750;5.888;2023-02-17T10:53:32;11.88;;;7.70;;
32319;SDS011;19080;51.750;5.888;2023-02-17T10:56:11;7.88;;;7.00;;
32319;SDS011;19080;51.750;5.888;2023-02-17T10:58:53;5.70;;;5.20;;
32319;SDS011;19080;51.750;5.888;2023-02-17T11:01:24;5.40;;;5.00;;
32319;SDS011;19080;51.750;5.888;2023-02-17T11:04:00;6.00;;;5.40;;
32319;SDS011;19080;51.750;5.888;2023-02-17T11:06:36;6.75;;;5.60;;
32319;SDS011;19080;51.750;5.888;2023-02-17T11:09:16;7.13;;;5.60;;
32319;SDS011;19080;51.750;5.888;2023-02-17T11:11:58;6.03;;;5.47;;
32319;SDS011;19080;51.750;5.888;2023-02-17T11:14:28;6.22;;;5.20;;
32319;SDS011;19080;51.750;5.888;2023-02-17T11:16:58;6.15;;;5.63;;
32319;SDS011;19080;51.750;5.888;2023-02-17T11:22:00;5.80;;;5.07;;
32319;SDS011;19080;51.750;5.888;2023-02-17T11:24:30;5.93;;;5.32;;
32319;SDS011;19080;51.750;5.888;2023-02-17T11:27:07;5.35;;;4.85;;
32319;SDS011;19080;51.750;5.888;2023-02-17T11:29:35;5.15;;;4.70;;
32319;SDS011;19080;51.750;5.888;2023-02-17T11:32:06;5.93;;;5.25;;
32319;SDS011;19080;51.750;5.888;2023-02-17T11:34:38;5.72;;;4.78;;
32319;SDS011;19080;51.750;5.888;2023-02-17T11:42:14;5.82;;;5.32;;
32319;SDS011;19080;51.750;5.888;2023-02-17T11:44:42;7.80;;;5.65;;
32319;SDS011;19080;51.750;5.888;2023-02-17T11:47:12;7.20;;;5.55;;
32319;SDS011;19080;51.750;5.888;2023-02-17T12:00:42;6.43;;;5.57;;
32319;SDS011;19080;51.750;5.888;2023-02-17T12:04:18;5.93;;;5.40;;
32319;SDS011;19080;51.750;5.888;2023-02-17T12:17:44;8.02;;;6.20;;
32319;SDS011;19080;51.750;5.888;2023-02-17T12:34:14;5.45;;;4.90;;
32319;SDS011;19080;51.750;5.888;2023-02-17T12:36:42;5.50;;;5.03;;
32319;SDS011;19080;51.750;5.888;2023-02-17T12:39:20;6.07;;;5.32;;
32319;SDS011;19080;51.750;5.888;2023-02-17T12:41:52;6.28;;;5.20;;
32319;SDS011;19080;51.750;5.888;2023-02-17T12:44:25;5.60;;;5.10;;
32319;SDS011;19080;51.750;5.888;2023-02-17T12:46:56;7.95;;;5.45;;
32319;SDS011;19080;51.750;5.888;2023-02-17T12:49:33;6.45;;;5.85;;
32319;SDS011;19080;51.750;5.888;2023-02-17T12:52:16;6.00;;;5.35;;
32319;SDS011;19080;51.750;5.888;2023-02-17T12:54:48;7.20;;;5.13;;
32319;SDS011;19080;51.750;5.888;2023-02-17T12:57:21;7.72;;;5.88;;
32319;SDS011;19080;51.750;5.888;2023-02-17T13:00:13;8.80;;;5.00;;
32319;SDS011;19080;51.750;5.888;2023-02-17T13:02:43;6.32;;;4.70;;
32319;SDS011;19080;51.750;5.888;2023-02-17T13:05:28;6.65;;;4.75;;
32319;SDS011;19080;51.750;5.888;2023-02-17T13:08:05;8.55;;;4.78;;
32319;SDS011;19080;51.750;5.888;2023-02-17T13:10:39;6.15;;;3.80;;
32319;SDS011;19080;51.750;5.888;2023-02-17T13:13:10;6.13;;;4.28;;
32319;SDS011;19080;51.750;5.888;2023-02-17T13:15:43;6.32;;;4.18;;
32319;SDS011;19080;51.750;5.888;2023-02-17T13:18:12;4.50;;;3.50;;
32319;SDS011;19080;51.750;5.888;2023-02-17T13:20:56;7.47;;;3.83;;
32319;SDS011;19080;51.750;5.888;2023-02-17T13:23:40;4.95;;;3.45;;
32319;SDS011;19080;51.750;5.888;2023-02-17T13:28:47;4.72;;;3.15;;
32319;SDS011;19080;51.750;5.888;2023-02-17T13:31:16;5.38;;;3.65;;
32319;SDS011;19080;51.750;5.888;2023-02-17T13:33:57;6.45;;;3.33;;
32319;SDS011;19080;51.750;5.888;2023-02-17T13:38:59;7.32;;;3.03;;
32319;SDS011;19080;51.750;5.888;2023-02-17T13:41:28;6.65;;;3.03;;
32319;SDS011;19080;51.750;5.888;2023-02-17T13:44:11;5.00;;;3.22;;
32319;SDS011;19080;51.750;5.888;2023-02-17T13:46:49;6.43;;;3.40;;
32319;SDS011;19080;51.750;5.888;2023-02-17T13:49:21;5.95;;;3.20;;
32319;SDS011;19080;51.750;5.888;2023-02-17T13:51:49;8.10;;;3.15;;
32319;SDS011;19080;51.750;5.888;2023-02-17T13:54:18;6.10;;;3.20;;
32319;SDS011;19080;51.750;5.888;2023-02-17T13:56:50;5.22;;;3.50;;
32319;SDS011;19080;51.750;5.888;2023-02-17T13:59:23;6.43;;;4.47;;
32319;SDS011;19080;51.750;5.888;2023-02-17T14:01:51;9.30;;;4.22;;
32319;SDS011;19080;51.750;5.888;2023-02-17T14:06:49;6.63;;;4.45;;
32319;SDS011;19080;51.750;5.888;2023-02-17T14:09:21;5.53;;;4.10;;
32319;SDS011;19080;51.750;5.888;2023-02-17T14:11:50;6.30;;;4.53;;
32319;SDS011;19080;51.750;5.888;2023-02-17T14:14:19;7.40;;;4.40;;
32319;SDS011;19080;51.750;5.888;2023-02-17T14:19:26;6.57;;;4.82;;
32319;SDS011;19080;51.750;5.888;2023-02-17T14:22:00;8.65;;;4.68;;
32319;SDS011;19080;51.750;5.888;2023-02-17T14:24:34;7.93;;;4.95;;
32319;SDS011;19080;51.750;5.888;2023-02-17T14:27:06;4.55;;;3.85;;
32319;SDS011;19080;51.750;5.888;2023-02-17T14:37:38;4.28;;;3.47;;
32319;SDS011;19080;51.750;5.888;2023-02-17T14:40:13;5.78;;;3.53;;
32319;SDS011;19080;51.750;5.888;2023-02-17T14:42:41;4.85;;;3.17;;
32319;SDS011;19080;51.750;5.888;2023-02-17T14:45:08;6.38;;;3.75;;
32319;SDS011;19080;51.750;5.888;2023-02-17T14:47:34;6.45;;;3.45;;
32319;SDS011;19080;51.750;5.888;2023-02-17T14:50:01;6.75;;;3.33;;
32319;SDS011;19080;51.750;5.888;2023-02-17T14:52:28;6.47;;;4.30;;
32319;SDS011;19080;51.750;5.888;2023-02-17T14:54:57;5.50;;;2.85;;
32319;SDS011;19080;51.750;5.888;2023-02-17T14:57:25;9.45;;;2.97;;
32319;SDS011;19080;51.750;5.888;2023-02-17T14:59:52;6.43;;;3.03;;
32319;SDS011;19080;51.750;5.888;2023-02-17T15:02:22;4.15;;;3.03;;
32319;SDS011;19080;51.750;5.888;2023-02-17T15:04:49;5.78;;;3.10;;
32319;SDS011;19080;51.750;5.888;2023-02-17T15:07:16;11.55;;;3.20;;
32319;SDS011;19080;51.750;5.888;2023-02-17T15:09:44;5.53;;;3.40;;
32319;SDS011;19080;51.750;5.888;2023-02-17T15:12:14;4.82;;;3.03;;
32319;SDS011;19080;51.750;5.888;2023-02-17T15:14:43;5.90;;;3.15;;
32319;SDS011;19080;51.750;5.888;2023-02-17T15:17:12;6.20;;;3.00;;
32319;SDS011;19080;51.750;5.888;2023-02-17T15:19:40;6.03;;;3.10;;
32319;SDS011;19080;51.750;5.888;2023-02-17T15:22:12;7.43;;;2.92;;
32319;SDS011;19080;51.750;5.888;2023-02-17T15:24:39;6.13;;;2.72;;
32319;SDS011;19080;51.750;5.888;2023-02-17T15:27:08;6.38;;;2.47;;
32319;SDS011;19080;51.750;5.888;2023-02-17T15:29:40;4.47;;;2.92;;
32319;SDS011;19080;51.750;5.888;2023-02-17T15:32:11;6.10;;;3.00;;
32319;SDS011;19080;51.750;5.888;2023-02-17T15:34:44;7.75;;;3.13;;
32319;SDS011;19080;51.750;5.888;2023-02-17T15:37:11;6.32;;;2.88;;
32319;SDS011;19080;51.750;5.888;2023-02-17T15:39:37;4.93;;;2.83;;
32319;SDS011;19080;51.750;5.888;2023-02-17T15:42:05;5.22;;;2.67;;
32319;SDS011;19080;51.750;5.888;2023-02-17T15:47:16;4.28;;;2.83;;
32319;SDS011;19080;51.750;5.888;2023-02-17T15:49:44;5.35;;;3.10;;
32319;SDS011;19080;51.750;5.888;2023-02-17T15:52:11;4.28;;;3.10;;
32319;SDS011;19080;51.750;5.888;2023-02-17T15:54:39;9.30;;;5.43;;
32319;SDS011;19080;51.750;5.888;2023-02-17T15:57:07;11.98;;;6.35;;
32319;SDS011;19080;51.750;5.888;2023-02-17T15:59:46;7.28;;;5.43;;
32319;SDS011;19080;51.750;5.888;2023-02-17T16:02:20;18.88;;;12.32;;
32319;SDS011;19080;51.750;5.888;2023-02-17T16:04:48;6.38;;;4.10;;
32319;SDS011;19080;51.750;5.888;2023-02-17T16:07:15;7.05;;;3.85;;
32319;SDS011;19080;51.750;5.888;2023-02-17T16:09:42;5.95;;;3.60;;
32319;SDS011;19080;51.750;5.888;2023-02-17T16:12:14;8.40;;;3.35;;
32319;SDS011;19080;51.750;5.888;2023-02-17T16:14:43;4.97;;;3.50;;
32319;SDS011;19080;51.750;5.888;2023-02-17T16:17:14;6.40;;;3.55;;
32319;SDS011;19080;51.750;5.888;2023-02-17T16:19:41;7.65;;;4.60;;
32319;SDS011;19080;51.750;5.888;2023-02-17T16:22:08;5.47;;;3.83;;
32319;SDS011;19080;51.750;5.888;2023-02-17T16:24:35;4.80;;;3.20;;
32319;SDS011;19080;51.750;5.888;2023-02-17T16:27:02;11.50;;;4.85;;
32319;SDS011;19080;51.750;5.888;2023-02-17T16:29:30;8.80;;;4.53;;
32319;SDS011;19080;51.750;5.888;2023-02-17T16:31:56;9.30;;;3.80;;
32319;SDS011;19080;51.750;5.888;2023-02-17T16:34:23;7.75;;;3.88;;
32319;SDS011;19080;51.750;5.888;2023-02-17T16:36:51;6.95;;;4.05;;
32319;SDS011;19080;51.750;5.888;2023-02-17T16:39:21;5.70;;;3.53;;
32319;SDS011;19080;51.750;5.888;2023-02-17T16:41:48;5.25;;;3.67;;
32319;SDS011;19080;51.750;5.888;2023-02-17T16:44:15;5.45;;;4.18;;